Here is the Quick Look data you requested

The Data originates at the National Weather Service, and is made available here by the UAlbany Department of Atmospheric and Environmental Sciences

Surface Observations

KFDK 240710Z AUTO 00000KT 3/4SM BKN002 A2988 RMK AO2=
KFDK 240750Z AUTO 00000KT 1 1/4SM SCT060 A2988 RMK AO2=
KFDK 241047Z 00000KT 10SM CLR 18/18 A2991=
KFDK 241147Z 00000KT 10SM CLR 19/19 A2992=
KFDK 241247Z 00000KT 10SM CLR 21/19 A2992=
KFDK 241347Z 05010KT 10SM CLR 24/20 A2991=
KFDK 241447Z 07010KT 10SM CLR 26/15 A2991=
KFDK 241547Z 04006KT 10SM CLR 27/14 A2990=
KFDK 241647Z 00000KT 10SM SCT060 28/13 A2990=
KFDK 241747Z 00000KT 10SM SCT060 29/12 A2987=
KFDK 241847Z 00000KT 10SM CLR 30/13 A2986=
KFDK 241947Z 00000KT 10SM SCT070 29/12 A2986=
KFDK 242047Z 00000KT 10SM CLR 30/13 A2984=
KFDK 242147Z 00000KT 10SM CLR 29/14 A2984=
KFDK 242247Z 00000KT 10SM SCT070 28/16 A2983=
KFDK 242347Z 00000KT 10SM CLR 28/16 A2983=
KFDK 250047Z 00000KT 10SM CLR 23/18 A2984=
KFDK 250210Z AUTO 00000KT 10SM CLR 21/20 A2987 RMK AO2=
KFDK 250230Z AUTO 00000KT 10SM CLR 21/21 A2988 RMK AO2=
KFDK 250250Z AUTO 00000KT 10SM CLR 21/21 A2988 RMK AO2=
KFDK 250330Z AUTO 00000KT 10SM SCT080 20/20 A2988 RMK AO2=
KFDK 250410Z AUTO 00000KT 10SM CLR 20/20 A2988 RMK AO2=